sensor_id;sensor_type;location;lat;lon;timestamp;temperature;humidity
4187;DHT22;2107;52.306;10.484;2024-02-21T00:02:22;7.30;99.90
4187;DHT22;2107;52.306;10.484;2024-02-21T00:04:48;7.40;99.90
4187;DHT22;2107;52.306;10.484;2024-02-21T00:07:15;7.30;99.90
4187;DHT22;2107;52.306;10.484;2024-02-21T00:09:42;7.30;99.90
4187;DHT22;2107;52.306;10.484;2024-02-21T00:12:09;7.30;99.90
4187;DHT22;2107;52.306;10.484;2024-02-21T00:14:36;7.30;99.90
4187;DHT22;2107;52.306;10.484;2024-02-21T00:17:03;7.30;99.90
4187;DHT22;2107;52.306;10.484;2024-02-21T00:19:31;7.30;99.90
4187;DHT22;2107;52.306;10.484;2024-02-21T00:21:58;7.30;99.90
4187;DHT22;2107;52.306;10.484;2024-02-21T00:24:25;7.30;99.90
4187;DHT22;2107;52.306;10.484;2024-02-21T00:26:53;7.40;99.90
4187;DHT22;2107;52.306;10.484;2024-02-21T00:29:20;7.40;99.90
4187;DHT22;2107;52.306;10.484;2024-02-21T00:31:48;7.40;99.90
4187;DHT22;2107;52.306;10.484;2024-02-21T00:34:15;7.40;99.90
4187;DHT22;2107;52.306;10.484;2024-02-21T00:36:44;7.40;99.90
4187;DHT22;2107;52.306;10.484;2024-02-21T00:39:10;7.40;99.90
4187;DHT22;2107;52.306;10.484;2024-02-21T00:41:37;7.40;99.90
4187;DHT22;2107;52.306;10.484;2024-02-21T00:44:04;7.50;99.90
4187;DHT22;2107;52.306;10.484;2024-02-21T00:46:32;7.60;99.90
4187;DHT22;2107;52.306;10.484;2024-02-21T00:48:58;7.60;99.90
4187;DHT22;2107;52.306;10.484;2024-02-21T00:51:25;7.70;99.90
4187;DHT22;2107;52.306;10.484;2024-02-21T00:53:53;7.80;99.90
4187;DHT22;2107;52.306;10.484;2024-02-21T00:56:21;7.80;99.90
4187;DHT22;2107;52.306;10.484;2024-02-21T00:58:48;7.80;99.90
4187;DHT22;2107;52.306;10.484;2024-02-21T01:01:21;7.80;99.90
4187;DHT22;2107;52.306;10.484;2024-02-21T01:03:49;7.80;99.90
4187;DHT22;2107;52.306;10.484;2024-02-21T01:06:16;7.80;99.90
4187;DHT22;2107;52.306;10.484;2024-02-21T01:08:43;7.90;99.90
4187;DHT22;2107;52.306;10.484;2024-02-21T01:11:11;7.90;99.90
4187;DHT22;2107;52.306;10.484;2024-02-21T01:13:38;8.00;99.90
4187;DHT22;2107;52.306;10.484;2024-02-21T01:16:05;7.90;99.90
4187;DHT22;2107;52.306;10.484;2024-02-21T01:18:32;8.00;99.90
4187;DHT22;2107;52.306;10.484;2024-02-21T01:20:59;8.00;99.90
4187;DHT22;2107;52.306;10.484;2024-02-21T01:23:27;8.00;99.90
4187;DHT22;2107;52.306;10.484;2024-02-21T01:25:53;8.10;99.90
4187;DHT22;2107;52.306;10.484;2024-02-21T01:28:22;8.00;99.90
4187;DHT22;2107;52.306;10.484;2024-02-21T01:30:48;8.00;99.90
4187;DHT22;2107;52.306;10.484;2024-02-21T01:33:15;8.00;99.90
4187;DHT22;2107;52.306;10.484;2024-02-21T01:35:42;8.00;99.90
4187;DHT22;2107;52.306;10.484;2024-02-21T01:38:09;8.10;99.90
4187;DHT22;2107;52.306;10.484;2024-02-21T01:40:36;8.10;99.90
4187;DHT22;2107;52.306;10.484;2024-02-21T01:43:03;8.00;99.90
4187;DHT22;2107;52.306;10.484;2024-02-21T01:45:32;8.00;99.90
4187;DHT22;2107;52.306;10.484;2024-02-21T01:47:58;8.00;99.90
4187;DHT22;2107;52.306;10.484;2024-02-21T01:50:25;8.30;99.90
4187;DHT22;2107;52.306;10.484;2024-02-21T01:52:53;8.10;99.90
4187;DHT22;2107;52.306;10.484;2024-02-21T01:55:20;8.10;99.90
4187;DHT22;2107;52.306;10.484;2024-02-21T01:57:47;8.10;99.90
4187;DHT22;2107;52.306;10.484;2024-02-21T02:00:15;8.00;99.90
4187;DHT22;2107;52.306;10.484;2024-02-21T02:02:44;8.00;99.90
4187;DHT22;2107;52.306;10.484;2024-02-21T02:05:12;8.10;99.90
4187;DHT22;2107;52.306;10.484;2024-02-21T02:07:39;8.10;99.90
4187;DHT22;2107;52.306;10.484;2024-02-21T02:10:07;8.10;99.90
4187;DHT22;2107;52.306;10.484;2024-02-21T02:12:35;8.10;99.90
4187;DHT22;2107;52.306;10.484;2024-02-21T02:15:03;8.10;99.90
4187;DHT22;2107;52.306;10.484;2024-02-21T02:17:31;8.10;99.90
4187;DHT22;2107;52.306;10.484;2024-02-21T02:19:59;8.10;99.90
4187;DHT22;2107;52.306;10.484;2024-02-21T02:22:28;8.20;99.90
4187;DHT22;2107;52.306;10.484;2024-02-21T02:24:57;8.20;99.90
4187;DHT22;2107;52.306;10.484;2024-02-21T02:27:24;8.20;99.90
4187;DHT22;2107;52.306;10.484;2024-02-21T02:29:51;8.20;99.90
4187;DHT22;2107;52.306;10.484;2024-02-21T02:32:18;8.10;99.90
4187;DHT22;2107;52.306;10.484;2024-02-21T02:34:45;8.20;99.90
4187;DHT22;2107;52.306;10.484;2024-02-21T02:37:11;8.20;99.90
4187;DHT22;2107;52.306;10.484;2024-02-21T02:39:38;8.20;99.90
4187;DHT22;2107;52.306;10.484;2024-02-21T02:42:07;8.20;99.90
4187;DHT22;2107;52.306;10.484;2024-02-21T02:44:34;8.20;99.90
4187;DHT22;2107;52.306;10.484;2024-02-21T02:47:01;8.20;99.90
4187;DHT22;2107;52.306;10.484;2024-02-21T02:49:27;8.20;99.90
4187;DHT22;2107;52.306;10.484;2024-02-21T02:51:54;8.20;99.90
4187;DHT22;2107;52.306;10.484;2024-02-21T02:54:21;8.20;99.90
4187;DHT22;2107;52.306;10.484;2024-02-21T02:56:50;8.20;99.90
4187;DHT22;2107;52.306;10.484;2024-02-21T02:59:18;8.20;99.90
4187;DHT22;2107;52.306;10.484;2024-02-21T03:01:45;8.20;99.90
4187;DHT22;2107;52.306;10.484;2024-02-21T03:04:12;8.20;99.90
4187;DHT22;2107;52.306;10.484;2024-02-21T03:06:39;8.30;99.90
4187;DHT22;2107;52.306;10.484;2024-02-21T03:09:06;8.30;99.90
4187;DHT22;2107;52.306;10.484;2024-02-21T03:11:35;8.20;99.90
4187;DHT22;2107;52.306;10.484;2024-02-21T03:14:02;8.30;99.90
4187;DHT22;2107;52.306;10.484;2024-02-21T03:16:30;8.30;99.90
4187;DHT22;2107;52.306;10.484;2024-02-21T03:18:57;8.20;99.90
4187;DHT22;2107;52.306;10.484;2024-02-21T03:21:24;8.20;99.90
4187;DHT22;2107;52.306;10.484;2024-02-21T03:23:51;8.30;99.90
4187;DHT22;2107;52.306;10.484;2024-02-21T03:26:17;8.30;99.90
4187;DHT22;2107;52.306;10.484;2024-02-21T03:28:44;8.30;99.90
4187;DHT22;2107;52.306;10.484;2024-02-21T03:31:12;8.30;99.90
4187;DHT22;2107;52.306;10.484;2024-02-21T03:33:42;8.30;99.90
4187;DHT22;2107;52.306;10.484;2024-02-21T03:36:13;8.30;99.90
4187;DHT22;2107;52.306;10.484;2024-02-21T03:38:40;8.30;99.90
4187;DHT22;2107;52.306;10.484;2024-02-21T03:41:07;8.40;99.90
4187;DHT22;2107;52.306;10.484;2024-02-21T03:43:34;8.40;99.90
4187;DHT22;2107;52.306;10.484;2024-02-21T03:46:01;8.40;99.90
4187;DHT22;2107;52.306;10.484;2024-02-21T03:48:27;8.40;99.90
4187;DHT22;2107;52.306;10.484;2024-02-21T03:50:56;8.40;99.90
4187;DHT22;2107;52.306;10.484;2024-02-21T03:53:23;8.60;99.90
4187;DHT22;2107;52.306;10.484;2024-02-21T03:55:49;8.40;99.90
4187;DHT22;2107;52.306;10.484;2024-02-21T03:58:16;8.40;99.90
4187;DHT22;2107;52.306;10.484;2024-02-21T04:00:43;8.40;99.90
4187;DHT22;2107;52.306;10.484;2024-02-21T04:03:10;8.40;99.90
4187;DHT22;2107;52.306;10.484;2024-02-21T04:05:37;8.30;99.90
4187;DHT22;2107;52.306;10.484;2024-02-21T04:08:06;8.20;99.90
4187;DHT22;2107;52.306;10.484;2024-02-21T04:10:33;8.20;99.90
4187;DHT22;2107;52.306;10.484;2024-02-21T04:13:01;8.30;99.90
4187;DHT22;2107;52.306;10.484;2024-02-21T04:15:27;8.30;99.90
4187;DHT22;2107;52.306;10.484;2024-02-21T04:17:54;8.40;99.90
4187;DHT22;2107;52.306;10.484;2024-02-21T04:20:21;8.40;99.90
4187;DHT22;2107;52.306;10.484;2024-02-21T04:22:48;8.40;99.90
4187;DHT22;2107;52.306;10.484;2024-02-21T04:25:17;8.40;99.90
4187;DHT22;2107;52.306;10.484;2024-02-21T04:27:44;8.50;99.90
4187;DHT22;2107;52.306;10.484;2024-02-21T04:30:12;8.50;99.90
4187;DHT22;2107;52.306;10.484;2024-02-21T04:32:39;8.50;99.90
4187;DHT22;2107;52.306;10.484;2024-02-21T04:35:07;8.50;99.90
4187;DHT22;2107;52.306;10.484;2024-02-21T04:37:34;8.60;99.90
4187;DHT22;2107;52.306;10.484;2024-02-21T04:40:01;8.50;99.90
4187;DHT22;2107;52.306;10.484;2024-02-21T04:42:29;8.60;99.90
4187;DHT22;2107;52.306;10.484;2024-02-21T04:44:56;8.60;99.90
4187;DHT22;2107;52.306;10.484;2024-02-21T04:47:23;8.60;99.90
4187;DHT22;2107;52.306;10.484;2024-02-21T04:49:50;8.60;99.90
4187;DHT22;2107;52.306;10.484;2024-02-21T04:52:17;8.60;99.90
4187;DHT22;2107;52.306;10.484;2024-02-21T04:54:44;8.60;99.90
4187;DHT22;2107;52.306;10.484;2024-02-21T04:57:11;8.60;99.90
4187;DHT22;2107;52.306;10.484;2024-02-21T04:59:43;8.50;99.90
4187;DHT22;2107;52.306;10.484;2024-02-21T05:02:10;8.50;99.90
4187;DHT22;2107;52.306;10.484;2024-02-21T05:04:37;8.70;99.90
4187;DHT22;2107;52.306;10.484;2024-02-21T05:07:05;8.50;99.90
4187;DHT22;2107;52.306;10.484;2024-02-21T05:09:32;8.50;99.90
4187;DHT22;2107;52.306;10.484;2024-02-21T05:11:59;8.60;99.90
4187;DHT22;2107;52.306;10.484;2024-02-21T05:14:26;8.50;99.90
4187;DHT22;2107;52.306;10.484;2024-02-21T05:16:54;8.60;99.90
4187;DHT22;2107;52.306;10.484;2024-02-21T05:19:21;8.40;99.90
4187;DHT22;2107;52.306;10.484;2024-02-21T05:21:48;8.50;99.90
4187;DHT22;2107;52.306;10.484;2024-02-21T05:24:15;8.50;99.90
4187;DHT22;2107;52.306;10.484;2024-02-21T05:26:42;8.50;99.90
4187;DHT22;2107;52.306;10.484;2024-02-21T05:29:09;8.50;99.90
4187;DHT22;2107;52.306;10.484;2024-02-21T05:31:56;8.40;99.90
4187;DHT22;2107;52.306;10.484;2024-02-21T05:34:23;8.40;99.90
4187;DHT22;2107;52.306;10.484;2024-02-21T05:36:50;8.50;99.90
4187;DHT22;2107;52.306;10.484;2024-02-21T05:39:18;8.50;99.90
4187;DHT22;2107;52.306;10.484;2024-02-21T05:41:45;8.50;99.90
4187;DHT22;2107;52.306;10.484;2024-02-21T05:44:12;8.50;99.90
4187;DHT22;2107;52.306;10.484;2024-02-21T05:46:39;8.50;99.90
4187;DHT22;2107;52.306;10.484;2024-02-21T05:49:07;8.50;99.90
4187;DHT22;2107;52.306;10.484;2024-02-21T05:51:34;8.50;99.90
4187;DHT22;2107;52.306;10.484;2024-02-21T05:54:01;8.60;99.90
4187;DHT22;2107;52.306;10.484;2024-02-21T05:56:28;8.50;99.90
4187;DHT22;2107;52.306;10.484;2024-02-21T05:58:55;8.70;99.90
4187;DHT22;2107;52.306;10.484;2024-02-21T06:01:22;8.60;99.90
4187;DHT22;2107;52.306;10.484;2024-02-21T06:03:49;8.50;99.90
4187;DHT22;2107;52.306;10.484;2024-02-21T06:06:18;8.50;99.90
4187;DHT22;2107;52.306;10.484;2024-02-21T06:08:46;8.50;99.90
4187;DHT22;2107;52.306;10.484;2024-02-21T06:11:13;8.50;99.90
4187;DHT22;2107;52.306;10.484;2024-02-21T06:13:41;8.50;99.90
4187;DHT22;2107;52.306;10.484;2024-02-21T06:16:08;8.60;99.90
4187;DHT22;2107;52.306;10.484;2024-02-21T06:18:36;8.60;99.90
4187;DHT22;2107;52.306;10.484;2024-02-21T06:21:03;8.50;99.90
4187;DHT22;2107;52.306;10.484;2024-02-21T06:23:32;8.60;99.90
4187;DHT22;2107;52.306;10.484;2024-02-21T06:25:59;8.60;99.90
4187;DHT22;2107;52.306;10.484;2024-02-21T06:28:26;8.60;99.90
4187;DHT22;2107;52.306;10.484;2024-02-21T06:30:53;8.60;99.90
4187;DHT22;2107;52.306;10.484;2024-02-21T06:33:19;8.60;99.90
4187;DHT22;2107;52.306;10.484;2024-02-21T06:35:50;8.60;99.90
4187;DHT22;2107;52.306;10.484;2024-02-21T06:38:18;8.60;99.90
4187;DHT22;2107;52.306;10.484;2024-02-21T06:40:46;8.60;99.90
4187;DHT22;2107;52.306;10.484;2024-02-21T06:43:18;8.60;99.90
4187;DHT22;2107;52.306;10.484;2024-02-21T06:45:45;8.60;99.90
4187;DHT22;2107;52.306;10.484;2024-02-21T06:48:16;8.60;99.90
4187;DHT22;2107;52.306;10.484;2024-02-21T06:50:43;8.60;99.90
4187;DHT22;2107;52.306;10.484;2024-02-21T06:53:10;8.60;99.90
4187;DHT22;2107;52.306;10.484;2024-02-21T06:55:37;8.60;99.90
4187;DHT22;2107;52.306;10.484;2024-02-21T06:58:06;8.70;99.90
4187;DHT22;2107;52.306;10.484;2024-02-21T07:00:37;8.60;99.90
4187;DHT22;2107;52.306;10.484;2024-02-21T07:03:04;8.60;99.90
4187;DHT22;2107;52.306;10.484;2024-02-21T07:05:31;8.60;99.90
4187;DHT22;2107;52.306;10.484;2024-02-21T07:07:58;8.60;99.90
4187;DHT22;2107;52.306;10.484;2024-02-21T07:10:25;8.60;99.90
4187;DHT22;2107;52.306;10.484;2024-02-21T07:12:53;8.60;99.90
4187;DHT22;2107;52.306;10.484;2024-02-21T07:15:21;8.60;99.90
4187;DHT22;2107;52.306;10.484;2024-02-21T07:17:48;8.70;99.90
4187;DHT22;2107;52.306;10.484;2024-02-21T07:20:15;8.70;99.90
4187;DHT22;2107;52.306;10.484;2024-02-21T07:22:42;8.70;99.90
4187;DHT22;2107;52.306;10.484;2024-02-21T07:25:09;8.70;99.90
4187;DHT22;2107;52.306;10.484;2024-02-21T07:27:36;8.60;99.90
4187;DHT22;2107;52.306;10.484;2024-02-21T07:30:04;8.70;99.90
4187;DHT22;2107;52.306;10.484;2024-02-21T07:32:32;8.60;99.90
4187;DHT22;2107;52.306;10.484;2024-02-21T07:34:59;8.70;99.90
4187;DHT22;2107;52.306;10.484;2024-02-21T07:37:26;8.70;99.90
4187;DHT22;2107;52.306;10.484;2024-02-21T07:39:52;8.80;99.90
4187;DHT22;2107;52.306;10.484;2024-02-21T07:42:19;8.80;99.90
4187;DHT22;2107;52.306;10.484;2024-02-21T07:44:46;8.90;99.90
4187;DHT22;2107;52.306;10.484;2024-02-21T07:47:13;8.90;99.90
4187;DHT22;2107;52.306;10.484;2024-02-21T07:49:45;8.80;99.90
4187;DHT22;2107;52.306;10.484;2024-02-21T07:52:12;8.90;99.90
4187;DHT22;2107;52.306;10.484;2024-02-21T07:54:39;8.90;99.90
4187;DHT22;2107;52.306;10.484;2024-02-21T07:57:07;8.90;99.90
4187;DHT22;2107;52.306;10.484;2024-02-21T07:59:34;8.90;99.90
4187;DHT22;2107;52.306;10.484;2024-02-21T08:02:01;8.90;99.90
4187;DHT22;2107;52.306;10.484;2024-02-21T08:04:28;9.00;99.90
4187;DHT22;2107;52.306;10.484;2024-02-21T08:06:56;9.20;99.90
4187;DHT22;2107;52.306;10.484;2024-02-21T08:09:26;9.20;99.90
4187;DHT22;2107;52.306;10.484;2024-02-21T08:11:54;9.20;99.90
4187;DHT22;2107;52.306;10.484;2024-02-21T08:14:21;9.40;99.90
4187;DHT22;2107;52.306;10.484;2024-02-21T08:16:50;9.30;99.90
4187;DHT22;2107;52.306;10.484;2024-02-21T08:19:18;9.40;99.90
4187;DHT22;2107;52.306;10.484;2024-02-21T08:21:45;9.50;99.90
4187;DHT22;2107;52.306;10.484;2024-02-21T08:24:14;9.50;99.90
4187;DHT22;2107;52.306;10.484;2024-02-21T08:26:41;9.40;99.90
4187;DHT22;2107;52.306;10.484;2024-02-21T08:29:08;9.60;99.90
4187;DHT22;2107;52.306;10.484;2024-02-21T08:31:35;9.70;99.90
4187;DHT22;2107;52.306;10.484;2024-02-21T08:34:02;9.70;99.90
4187;DHT22;2107;52.306;10.484;2024-02-21T08:36:29;9.70;99.90
4187;DHT22;2107;52.306;10.484;2024-02-21T08:38:56;9.70;99.90
4187;DHT22;2107;52.306;10.484;2024-02-21T08:41:25;9.60;99.90
4187;DHT22;2107;52.306;10.484;2024-02-21T08:43:52;9.60;99.90
4187;DHT22;2107;52.306;10.484;2024-02-21T08:46:20;9.60;99.90
4187;DHT22;2107;52.306;10.484;2024-02-21T08:48:47;9.50;99.90
4187;DHT22;2107;52.306;10.484;2024-02-21T08:51:14;9.50;99.90
4187;DHT22;2107;52.306;10.484;2024-02-21T08:53:41;9.70;99.90
4187;DHT22;2107;52.306;10.484;2024-02-21T08:56:08;9.60;99.90
4187;DHT22;2107;52.306;10.484;2024-02-21T08:58:37;9.60;99.90
4187;DHT22;2107;52.306;10.484;2024-02-21T09:01:04;9.70;99.90
4187;DHT22;2107;52.306;10.484;2024-02-21T09:03:31;9.70;99.90
4187;DHT22;2107;52.306;10.484;2024-02-21T09:05:58;9.90;99.90
4187;DHT22;2107;52.306;10.484;2024-02-21T09:08:25;10.00;99.90
4187;DHT22;2107;52.306;10.484;2024-02-21T09:10:52;10.10;99.90
4187;DHT22;2107;52.306;10.484;2024-02-21T09:13:19;10.00;99.90
4187;DHT22;2107;52.306;10.484;2024-02-21T09:15:49;10.00;99.90
4187;DHT22;2107;52.306;10.484;2024-02-21T09:18:16;10.10;99.90
4187;DHT22;2107;52.306;10.484;2024-02-21T09:20:43;10.10;99.90
4187;DHT22;2107;52.306;10.484;2024-02-21T09:23:10;10.20;99.90
4187;DHT22;2107;52.306;10.484;2024-02-21T09:25:37;10.40;99.90
4187;DHT22;2107;52.306;10.484;2024-02-21T09:28:04;10.50;99.90
4187;DHT22;2107;52.306;10.484;2024-02-21T09:30:32;10.30;99.90
4187;DHT22;2107;52.306;10.484;2024-02-21T09:33:00;10.40;99.90
4187;DHT22;2107;52.306;10.484;2024-02-21T09:35:27;10.10;99.90
4187;DHT22;2107;52.306;10.484;2024-02-21T09:37:54;10.30;99.90
4187;DHT22;2107;52.306;10.484;2024-02-21T09:40:21;10.30;99.90
4187;DHT22;2107;52.306;10.484;2024-02-21T09:42:55;10.30;99.90
4187;DHT22;2107;52.306;10.484;2024-02-21T09:45:26;10.60;99.90
4187;DHT22;2107;52.306;10.484;2024-02-21T09:48:06;10.60;99.90
4187;DHT22;2107;52.306;10.484;2024-02-21T09:50:39;10.50;99.90
4187;DHT22;2107;52.306;10.484;2024-02-21T09:53:07;10.50;99.90
4187;DHT22;2107;52.306;10.484;2024-02-21T09:55:36;10.40;99.90
4187;DHT22;2107;52.306;10.484;2024-02-21T09:58:05;10.40;99.90
4187;DHT22;2107;52.306;10.484;2024-02-21T10:00:33;10.50;99.90
4187;DHT22;2107;52.306;10.484;2024-02-21T10:03:01;10.60;99.90
4187;DHT22;2107;52.306;10.484;2024-02-21T10:05:34;10.60;99.90
4187;DHT22;2107;52.306;10.484;2024-02-21T10:08:01;10.80;99.90
4187;DHT22;2107;52.306;10.484;2024-02-21T10:10:28;10.80;99.90
4187;DHT22;2107;52.306;10.484;2024-02-21T10:12:56;10.70;99.90
4187;DHT22;2107;52.306;10.484;2024-02-21T10:15:24;10.60;99.90
4187;DHT22;2107;52.306;10.484;2024-02-21T10:17:58;10.70;99.90
4187;DHT22;2107;52.306;10.484;2024-02-21T10:20:26;11.00;99.90
4187;DHT22;2107;52.306;10.484;2024-02-21T10:23:02;11.20;99.90
4187;DHT22;2107;52.306;10.484;2024-02-21T10:25:33;11.00;99.90
4187;DHT22;2107;52.306;10.484;2024-02-21T10:28:01;10.90;99.90
4187;DHT22;2107;52.306;10.484;2024-02-21T10:30:29;11.20;99.90
4187;DHT22;2107;52.306;10.484;2024-02-21T10:32:56;11.10;99.90
4187;DHT22;2107;52.306;10.484;2024-02-21T10:35:26;11.40;99.90
4187;DHT22;2107;52.306;10.484;2024-02-21T10:37:55;11.20;99.90
4187;DHT22;2107;52.306;10.484;2024-02-21T10:40:24;11.10;99.90
4187;DHT22;2107;52.306;10.484;2024-02-21T10:42:56;11.00;99.90
4187;DHT22;2107;52.306;10.484;2024-02-21T10:45:29;11.10;99.90
4187;DHT22;2107;52.306;10.484;2024-02-21T10:48:03;11.10;99.90
4187;DHT22;2107;52.306;10.484;2024-02-21T10:50:37;11.10;99.90
4187;DHT22;2107;52.306;10.484;2024-02-21T10:53:13;11.10;99.90
4187;DHT22;2107;52.306;10.484;2024-02-21T10:55:50;11.40;99.90
4187;DHT22;2107;52.306;10.484;2024-02-21T10:58:18;11.30;99.90
4187;DHT22;2107;52.306;10.484;2024-02-21T11:00:46;11.40;99.90
4187;DHT22;2107;52.306;10.484;2024-02-21T11:03:13;11.30;99.90
4187;DHT22;2107;52.306;10.484;2024-02-21T11:05:40;11.30;99.90
4187;DHT22;2107;52.306;10.484;2024-02-21T11:08:08;11.30;99.90
4187;DHT22;2107;52.306;10.484;2024-02-21T11:10:36;11.60;99.90
4187;DHT22;2107;52.306;10.484;2024-02-21T11:13:09;11.50;99.90
4187;DHT22;2107;52.306;10.484;2024-02-21T11:15:36;11.30;99.90
4187;DHT22;2107;52.306;10.484;2024-02-21T11:18:03;11.30;99.90
4187;DHT22;2107;52.306;10.484;2024-02-21T11:20:34;11.50;99.90
4187;DHT22;2107;52.306;10.484;2024-02-21T11:23:01;11.70;99.90
4187;DHT22;2107;52.306;10.484;2024-02-21T11:25:28;11.50;99.90
4187;DHT22;2107;52.306;10.484;2024-02-21T11:28:00;11.50;99.90
4187;DHT22;2107;52.306;10.484;2024-02-21T11:30:30;11.50;99.90
4187;DHT22;2107;52.306;10.484;2024-02-21T11:33:01;11.60;99.90
4187;DHT22;2107;52.306;10.484;2024-02-21T11:35:31;11.60;99.90
4187;DHT22;2107;52.306;10.484;2024-02-21T11:38:08;11.60;99.90
4187;DHT22;2107;52.306;10.484;2024-02-21T11:40:39;11.50;99.90
4187;DHT22;2107;52.306;10.484;2024-02-21T11:43:06;11.50;99.90
4187;DHT22;2107;52.306;10.484;2024-02-21T11:45:34;11.80;99.90
4187;DHT22;2107;52.306;10.484;2024-02-21T11:48:01;12.00;99.90
4187;DHT22;2107;52.306;10.484;2024-02-21T11:50:31;11.90;99.90
4187;DHT22;2107;52.306;10.484;2024-02-21T11:52:58;12.10;99.90
4187;DHT22;2107;52.306;10.484;2024-02-21T11:55:25;11.80;99.90
4187;DHT22;2107;52.306;10.484;2024-02-21T11:57:51;11.60;99.90
4187;DHT22;2107;52.306;10.484;2024-02-21T12:00:19;11.80;99.90
4187;DHT22;2107;52.306;10.484;2024-02-21T12:02:48;11.70;99.90
4187;DHT22;2107;52.306;10.484;2024-02-21T12:05:16;11.60;99.90
4187;DHT22;2107;52.306;10.484;2024-02-21T12:07:45;11.70;99.90
4187;DHT22;2107;52.306;10.484;2024-02-21T12:10:13;11.80;99.90
4187;DHT22;2107;52.306;10.484;2024-02-21T12:12:40;11.70;99.90
4187;DHT22;2107;52.306;10.484;2024-02-21T12:15:08;11.70;99.90
4187;DHT22;2107;52.306;10.484;2024-02-21T12:17:35;11.90;99.90
4187;DHT22;2107;52.306;10.484;2024-02-21T12:20:04;12.20;99.90
4187;DHT22;2107;52.306;10.484;2024-02-21T12:22:35;11.90;99.90
4187;DHT22;2107;52.306;10.484;2024-02-21T12:25:03;12.00;99.90
4187;DHT22;2107;52.306;10.484;2024-02-21T12:27:33;11.90;99.90
4187;DHT22;2107;52.306;10.484;2024-02-21T12:30:00;11.80;99.90
4187;DHT22;2107;52.306;10.484;2024-02-21T12:32:27;12.00;99.90
4187;DHT22;2107;52.306;10.484;2024-02-21T12:34:53;11.70;99.90
4187;DHT22;2107;52.306;10.484;2024-02-21T12:37:24;11.70;99.90
4187;DHT22;2107;52.306;10.484;2024-02-21T12:39:51;12.10;99.90
4187;DHT22;2107;52.306;10.484;2024-02-21T12:42:18;12.20;99.90
4187;DHT22;2107;52.306;10.484;2024-02-21T12:44:45;12.20;99.90
4187;DHT22;2107;52.306;10.484;2024-02-21T12:47:12;11.80;99.90
4187;DHT22;2107;52.306;10.484;2024-02-21T12:49:38;11.80;99.90
4187;DHT22;2107;52.306;10.484;2024-02-21T12:52:06;11.80;99.90
4187;DHT22;2107;52.306;10.484;2024-02-21T12:54:34;11.70;99.90
4187;DHT22;2107;52.306;10.484;2024-02-21T12:57:01;11.70;99.90
4187;DHT22;2107;52.306;10.484;2024-02-21T12:59:28;11.40;99.90
4187;DHT22;2107;52.306;10.484;2024-02-21T13:01:55;11.40;99.90
4187;DHT22;2107;52.306;10.484;2024-02-21T13:04:22;11.40;99.90
4187;DHT22;2107;52.306;10.484;2024-02-21T13:06:49;11.30;99.90
4187;DHT22;2107;52.306;10.484;2024-02-21T13:09:15;11.60;99.90
4187;DHT22;2107;52.306;10.484;2024-02-21T13:11:43;11.40;99.90
4187;DHT22;2107;52.306;10.484;2024-02-21T13:14:11;11.50;99.90
4187;DHT22;2107;52.306;10.484;2024-02-21T13:16:38;11.60;99.90
4187;DHT22;2107;52.306;10.484;2024-02-21T13:19:06;11.70;99.90
4187;DHT22;2107;52.306;10.484;2024-02-21T13:21:33;11.70;99.90
4187;DHT22;2107;52.306;10.484;2024-02-21T13:24:00;11.90;99.90
4187;DHT22;2107;52.306;10.484;2024-02-21T13:26:27;11.90;99.90
4187;DHT22;2107;52.306;10.484;2024-02-21T13:28:56;11.90;99.90
4187;DHT22;2107;52.306;10.484;2024-02-21T13:31:22;11.80;99.90
4187;DHT22;2107;52.306;10.484;2024-02-21T13:33:50;11.70;99.90
4187;DHT22;2107;52.306;10.484;2024-02-21T13:36:17;11.80;99.90
4187;DHT22;2107;52.306;10.484;2024-02-21T13:38:45;11.90;99.90
4187;DHT22;2107;52.306;10.484;2024-02-21T13:41:12;12.10;99.90
4187;DHT22;2107;52.306;10.484;2024-02-21T13:43:39;12.20;99.90
4187;DHT22;2107;52.306;10.484;2024-02-21T13:46:07;12.10;99.90
4187;DHT22;2107;52.306;10.484;2024-02-21T13:48:37;12.10;99.90
4187;DHT22;2107;52.306;10.484;2024-02-21T13:51:04;12.10;99.90
4187;DHT22;2107;52.306;10.484;2024-02-21T13:53:31;12.20;99.90
4187;DHT22;2107;52.306;10.484;2024-02-21T13:55:58;11.80;99.90
4187;DHT22;2107;52.306;10.484;2024-02-21T13:58:25;11.70;99.90
4187;DHT22;2107;52.306;10.484;2024-02-21T14:00:52;11.60;99.90
4187;DHT22;2107;52.306;10.484;2024-02-21T14:03:21;11.60;99.90
4187;DHT22;2107;52.306;10.484;2024-02-21T14:05:47;11.20;99.90
4187;DHT22;2107;52.306;10.484;2024-02-21T14:08:14;11.30;99.90
4187;DHT22;2107;52.306;10.484;2024-02-21T14:10:41;11.40;99.90
4187;DHT22;2107;52.306;10.484;2024-02-21T14:13:08;11.30;99.90
4187;DHT22;2107;52.306;10.484;2024-02-21T14:15:35;11.30;99.90
4187;DHT22;2107;52.306;10.484;2024-02-21T14:18:06;11.30;99.90
4187;DHT22;2107;52.306;10.484;2024-02-21T14:20:36;11.20;99.90
4187;DHT22;2107;52.306;10.484;2024-02-21T14:23:03;11.20;99.90
4187;DHT22;2107;52.306;10.484;2024-02-21T14:25:30;11.10;99.90
4187;DHT22;2107;52.306;10.484;2024-02-21T14:27:58;11.10;99.90
4187;DHT22;2107;52.306;10.484;2024-02-21T14:30:26;11.20;99.90
4187;DHT22;2107;52.306;10.484;2024-02-21T14:32:53;11.20;99.90
4187;DHT22;2107;52.306;10.484;2024-02-21T14:35:20;11.10;99.90
4187;DHT22;2107;52.306;10.484;2024-02-21T14:37:49;10.90;99.90
4187;DHT22;2107;52.306;10.484;2024-02-21T14:40:15;10.90;99.90
4187;DHT22;2107;52.306;10.484;2024-02-21T14:42:44;10.90;99.90
4187;DHT22;2107;52.306;10.484;2024-02-21T14:45:11;10.90;99.90
4187;DHT22;2107;52.306;10.484;2024-02-21T14:47:39;10.70;99.90
4187;DHT22;2107;52.306;10.484;2024-02-21T14:50:06;10.70;99.90
4187;DHT22;2107;52.306;10.484;2024-02-21T14:52:34;10.60;99.90
4187;DHT22;2107;52.306;10.484;2024-02-21T14:55:04;10.50;99.90
4187;DHT22;2107;52.306;10.484;2024-02-21T14:57:31;10.40;99.90
4187;DHT22;2107;52.306;10.484;2024-02-21T14:59:58;10.50;99.90
4187;DHT22;2107;52.306;10.484;2024-02-21T15:02:25;10.50;99.90
4187;DHT22;2107;52.306;10.484;2024-02-21T15:04:53;10.20;99.90
4187;DHT22;2107;52.306;10.484;2024-02-21T15:07:20;10.30;99.90
4187;DHT22;2107;52.306;10.484;2024-02-21T15:09:49;10.20;99.90
4187;DHT22;2107;52.306;10.484;2024-02-21T15:12:21;10.20;99.90
4187;DHT22;2107;52.306;10.484;2024-02-21T15:14:48;10.10;99.90
4187;DHT22;2107;52.306;10.484;2024-02-21T15:17:15;10.10;99.90
4187;DHT22;2107;52.306;10.484;2024-02-21T15:19:44;10.00;99.90
4187;DHT22;2107;52.306;10.484;2024-02-21T15:22:11;9.90;99.90
4187;DHT22;2107;52.306;10.484;2024-02-21T15:24:40;9.90;99.90
4187;DHT22;2107;52.306;10.484;2024-02-21T15:27:08;9.80;99.90
4187;DHT22;2107;52.306;10.484;2024-02-21T15:29:36;9.80;99.90
4187;DHT22;2107;52.306;10.484;2024-02-21T15:32:04;9.80;99.90
4187;DHT22;2107;52.306;10.484;2024-02-21T15:34:31;9.80;99.90
4187;DHT22;2107;52.306;10.484;2024-02-21T15:36:58;9.80;99.90
4187;DHT22;2107;52.306;10.484;2024-02-21T15:39:31;9.70;99.90
4187;DHT22;2107;52.306;10.484;2024-02-21T15:41:59;9.70;99.90
4187;DHT22;2107;52.306;10.484;2024-02-21T15:44:32;9.60;99.90
4187;DHT22;2107;52.306;10.484;2024-02-21T15:47:01;9.60;99.90
4187;DHT22;2107;52.306;10.484;2024-02-21T15:49:31;9.60;99.90
4187;DHT22;2107;52.306;10.484;2024-02-21T15:51:58;9.50;99.90
4187;DHT22;2107;52.306;10.484;2024-02-21T15:54:28;9.50;99.90
4187;DHT22;2107;52.306;10.484;2024-02-21T15:56:58;9.60;99.90
4187;DHT22;2107;52.306;10.484;2024-02-21T15:59:26;9.30;99.90